sensor_id;sensor_type;location;lat;lon;timestamp;P1;durP1;ratioP1;P2;durP2;ratioP2
40951;SDS011;26682;51.660;19.338;2023-09-19T00:00:46;16.80;;;15.07;;
40951;SDS011;26682;51.660;19.338;2023-09-19T00:03:50;18.13;;;16.23;;
40951;SDS011;26682;51.660;19.338;2023-09-19T00:06:34;15.75;;;14.25;;
40951;SDS011;26682;51.660;19.338;2023-09-19T00:09:17;15.40;;;13.93;;
40951;SDS011;26682;51.660;19.338;2023-09-19T00:11:59;16.58;;;14.60;;
40951;SDS011;26682;51.660;19.338;2023-09-19T00:14:42;15.45;;;13.85;;
40951;SDS011;26682;51.660;19.338;2023-09-19T00:17:24;20.83;;;14.35;;
40951;SDS011;26682;51.660;19.338;2023-09-19T00:20:07;17.38;;;14.10;;
40951;SDS011;26682;51.660;19.338;2023-09-19T00:22:54;15.07;;;13.68;;
40951;SDS011;26682;51.660;19.338;2023-09-19T00:25:36;15.48;;;13.98;;
40951;SDS011;26682;51.660;19.338;2023-09-19T00:28:19;16.48;;;13.93;;
40951;SDS011;26682;51.660;19.338;2023-09-19T00:31:03;14.85;;;13.35;;
40951;SDS011;26682;51.660;19.338;2023-09-19T00:33:47;17.67;;;13.00;;
40951;SDS011;26682;51.660;19.338;2023-09-19T00:36:30;15.40;;;13.80;;
40951;SDS011;26682;51.660;19.338;2023-09-19T00:39:13;17.15;;;14.18;;
40951;SDS011;26682;51.660;19.338;2023-09-19T00:41:55;15.27;;;13.68;;
40951;SDS011;26682;51.660;19.338;2023-09-19T00:44:38;15.32;;;13.50;;
40951;SDS011;26682;51.660;19.338;2023-09-19T00:47:22;18.58;;;14.10;;
40951;SDS011;26682;51.660;19.338;2023-09-19T00:50:04;14.75;;;13.15;;
40951;SDS011;26682;51.660;19.338;2023-09-19T00:52:50;15.18;;;13.18;;
40951;SDS011;26682;51.660;19.338;2023-09-19T00:55:35;14.73;;;13.23;;
40951;SDS011;26682;51.660;19.338;2023-09-19T00:58:19;15.35;;;13.25;;
40951;SDS011;26682;51.660;19.338;2023-09-19T01:01:02;15.57;;;13.38;;
40951;SDS011;26682;51.660;19.338;2023-09-19T01:03:50;17.92;;;13.43;;
40951;SDS011;26682;51.660;19.338;2023-09-19T01:06:33;16.98;;;13.65;;
40951;SDS011;26682;51.660;19.338;2023-09-19T01:09:15;15.95;;;12.80;;
40951;SDS011;26682;51.660;19.338;2023-09-19T01:11:58;13.57;;;12.25;;
40951;SDS011;26682;51.660;19.338;2023-09-19T01:14:54;14.43;;;13.02;;
40951;SDS011;26682;51.660;19.338;2023-09-19T01:17:53;15.25;;;13.52;;
40951;SDS011;26682;51.660;19.338;2023-09-19T01:29:46;14.38;;;12.80;;
40951;SDS011;26682;51.660;19.338;2023-09-19T01:32:32;15.02;;;12.82;;
40951;SDS011;26682;51.660;19.338;2023-09-19T01:35:15;14.55;;;13.05;;
40951;SDS011;26682;51.660;19.338;2023-09-19T01:37:58;14.50;;;12.98;;
40951;SDS011;26682;51.660;19.338;2023-09-19T01:40:42;17.85;;;12.98;;
40951;SDS011;26682;51.660;19.338;2023-09-19T01:43:27;14.00;;;12.55;;
40951;SDS011;26682;51.660;19.338;2023-09-19T01:46:35;15.35;;;12.68;;
40951;SDS011;26682;51.660;19.338;2023-09-19T01:49:33;14.18;;;12.65;;
40951;SDS011;26682;51.660;19.338;2023-09-19T01:52:28;15.55;;;12.70;;
40951;SDS011;26682;51.660;19.338;2023-09-19T01:55:15;16.40;;;13.20;;
40951;SDS011;26682;51.660;19.338;2023-09-19T02:01:07;13.93;;;12.52;;
40951;SDS011;26682;51.660;19.338;2023-09-19T02:03:52;15.25;;;13.48;;
40951;SDS011;26682;51.660;19.338;2023-09-19T02:06:39;16.42;;;13.15;;
40951;SDS011;26682;51.660;19.338;2023-09-19T02:09:22;14.40;;;12.80;;
40951;SDS011;26682;51.660;19.338;2023-09-19T02:12:05;15.60;;;13.95;;
40951;SDS011;26682;51.660;19.338;2023-09-19T02:14:48;16.85;;;13.35;;
40951;SDS011;26682;51.660;19.338;2023-09-19T02:17:31;15.43;;;13.82;;
40951;SDS011;26682;51.660;19.338;2023-09-19T02:20:13;14.77;;;13.20;;
40951;SDS011;26682;51.660;19.338;2023-09-19T02:23:01;16.50;;;13.18;;
40951;SDS011;26682;51.660;19.338;2023-09-19T02:25:51;15.68;;;14.02;;
40951;SDS011;26682;51.660;19.338;2023-09-19T02:28:35;16.65;;;13.60;;
40951;SDS011;26682;51.660;19.338;2023-09-19T02:31:18;16.42;;;14.73;;
40951;SDS011;26682;51.660;19.338;2023-09-19T02:34:01;16.08;;;13.65;;
40951;SDS011;26682;51.660;19.338;2023-09-19T02:36:43;17.00;;;14.65;;
40951;SDS011;26682;51.660;19.338;2023-09-19T02:39:26;18.35;;;14.57;;
40951;SDS011;26682;51.660;19.338;2023-09-19T02:42:10;15.85;;;14.20;;
40951;SDS011;26682;51.660;19.338;2023-09-19T02:44:53;16.50;;;14.85;;
40951;SDS011;26682;51.660;19.338;2023-09-19T02:47:35;17.10;;;14.77;;
40951;SDS011;26682;51.660;19.338;2023-09-19T02:50:18;15.35;;;13.75;;
40951;SDS011;26682;51.660;19.338;2023-09-19T02:53:01;16.17;;;14.57;;
40951;SDS011;26682;51.660;19.338;2023-09-19T02:55:44;16.00;;;14.32;;
40951;SDS011;26682;51.660;19.338;2023-09-19T02:58:26;17.70;;;15.10;;
40951;SDS011;26682;51.660;19.338;2023-09-19T03:01:11;17.20;;;15.35;;
40951;SDS011;26682;51.660;19.338;2023-09-19T03:03:54;19.02;;;15.38;;
40951;SDS011;26682;51.660;19.338;2023-09-19T03:06:37;20.15;;;14.68;;
40951;SDS011;26682;51.660;19.338;2023-09-19T03:09:22;16.00;;;14.35;;
40951;SDS011;26682;51.660;19.338;2023-09-19T03:12:05;16.73;;;14.88;;
40951;SDS011;26682;51.660;19.338;2023-09-19T03:14:48;16.65;;;14.90;;
40951;SDS011;26682;51.660;19.338;2023-09-19T03:17:32;17.10;;;15.35;;
40951;SDS011;26682;51.660;19.338;2023-09-19T03:20:15;19.70;;;15.18;;
40951;SDS011;26682;51.660;19.338;2023-09-19T03:23:04;19.05;;;15.23;;
40951;SDS011;26682;51.660;19.338;2023-09-19T03:25:49;17.38;;;15.60;;
40951;SDS011;26682;51.660;19.338;2023-09-19T03:28:33;17.17;;;15.35;;
40951;SDS011;26682;51.660;19.338;2023-09-19T03:31:16;20.55;;;15.50;;
40951;SDS011;26682;51.660;19.338;2023-09-19T03:34:01;17.75;;;15.15;;
40951;SDS011;26682;51.660;19.338;2023-09-19T03:36:45;18.95;;;16.48;;
40951;SDS011;26682;51.660;19.338;2023-09-19T03:39:27;18.33;;;15.85;;
40951;SDS011;26682;51.660;19.338;2023-09-19T03:42:10;17.63;;;15.60;;
40951;SDS011;26682;51.660;19.338;2023-09-19T03:44:53;19.02;;;17.02;;
40951;SDS011;26682;51.660;19.338;2023-09-19T03:47:36;18.98;;;15.82;;
40951;SDS011;26682;51.660;19.338;2023-09-19T03:50:19;19.38;;;16.70;;
40951;SDS011;26682;51.660;19.338;2023-09-19T03:53:03;18.77;;;16.77;;
40951;SDS011;26682;51.660;19.338;2023-09-19T03:55:46;18.38;;;15.40;;
40951;SDS011;26682;51.660;19.338;2023-09-19T03:58:28;19.55;;;17.27;;
40951;SDS011;26682;51.660;19.338;2023-09-19T04:01:11;19.50;;;17.38;;
40951;SDS011;26682;51.660;19.338;2023-09-19T04:03:55;18.38;;;16.58;;
40951;SDS011;26682;51.660;19.338;2023-09-19T04:06:38;20.10;;;16.77;;
40951;SDS011;26682;51.660;19.338;2023-09-19T04:09:21;19.10;;;17.05;;
40951;SDS011;26682;51.660;19.338;2023-09-19T04:12:04;19.08;;;17.08;;
40951;SDS011;26682;51.660;19.338;2023-09-19T04:14:47;19.10;;;16.73;;
40951;SDS011;26682;51.660;19.338;2023-09-19T04:17:29;19.15;;;17.25;;
40951;SDS011;26682;51.660;19.338;2023-09-19T04:20:15;20.23;;;18.08;;
40951;SDS011;26682;51.660;19.338;2023-09-19T04:22:59;24.08;;;18.38;;
40951;SDS011;26682;51.660;19.338;2023-09-19T04:25:42;22.92;;;18.85;;
40951;SDS011;26682;51.660;19.338;2023-09-19T04:28:25;20.08;;;17.58;;
40951;SDS011;26682;51.660;19.338;2023-09-19T04:31:11;21.50;;;17.95;;
40951;SDS011;26682;51.660;19.338;2023-09-19T04:33:53;22.60;;;17.70;;
40951;SDS011;26682;51.660;19.338;2023-09-19T04:36:36;23.85;;;17.77;;
40951;SDS011;26682;51.660;19.338;2023-09-19T04:39:21;21.85;;;17.23;;
40951;SDS011;26682;51.660;19.338;2023-09-19T04:42:07;26.27;;;17.80;;
40951;SDS011;26682;51.660;19.338;2023-09-19T04:44:50;25.40;;;17.60;;
40951;SDS011;26682;51.660;19.338;2023-09-19T04:47:36;23.30;;;18.83;;
40951;SDS011;26682;51.660;19.338;2023-09-19T04:50:20;22.67;;;17.33;;
40951;SDS011;26682;51.660;19.338;2023-09-19T04:53:05;22.38;;;17.25;;
40951;SDS011;26682;51.660;19.338;2023-09-19T04:55:49;23.70;;;17.75;;
40951;SDS011;26682;51.660;19.338;2023-09-19T04:58:34;24.23;;;17.65;;
40951;SDS011;26682;51.660;19.338;2023-09-19T05:01:17;23.17;;;18.42;;
40951;SDS011;26682;51.660;19.338;2023-09-19T05:03:59;22.00;;;17.20;;
40951;SDS011;26682;51.660;19.338;2023-09-19T05:06:43;28.15;;;18.02;;
40951;SDS011;26682;51.660;19.338;2023-09-19T05:09:27;21.33;;;17.52;;
40951;SDS011;26682;51.660;19.338;2023-09-19T05:12:10;20.52;;;17.42;;
40951;SDS011;26682;51.660;19.338;2023-09-19T05:14:52;22.48;;;17.27;;
40951;SDS011;26682;51.660;19.338;2023-09-19T05:17:35;22.60;;;18.00;;
40951;SDS011;26682;51.660;19.338;2023-09-19T05:20:18;21.67;;;18.45;;
40951;SDS011;26682;51.660;19.338;2023-09-19T05:23:12;19.63;;;17.20;;
40951;SDS011;26682;51.660;19.338;2023-09-19T05:25:54;22.38;;;16.25;;
40951;SDS011;26682;51.660;19.338;2023-09-19T05:28:39;19.33;;;16.75;;
40951;SDS011;26682;51.660;19.338;2023-09-19T05:31:21;16.83;;;15.13;;
40951;SDS011;26682;51.660;19.338;2023-09-19T05:34:05;15.18;;;13.40;;
40951;SDS011;26682;51.660;19.338;2023-09-19T05:36:48;15.20;;;13.10;;
40951;SDS011;26682;51.660;19.338;2023-09-19T05:39:30;15.15;;;13.27;;
40951;SDS011;26682;51.660;19.338;2023-09-19T05:42:13;17.60;;;14.55;;
40951;SDS011;26682;51.660;19.338;2023-09-19T05:44:56;24.13;;;16.20;;
40951;SDS011;26682;51.660;19.338;2023-09-19T05:47:39;30.77;;;18.25;;
40951;SDS011;26682;51.660;19.338;2023-09-19T05:50:26;22.08;;;17.42;;
40951;SDS011;26682;51.660;19.338;2023-09-19T05:53:08;24.08;;;18.92;;
40951;SDS011;26682;51.660;19.338;2023-09-19T05:55:54;25.98;;;19.80;;
40951;SDS011;26682;51.660;19.338;2023-09-19T05:58:37;21.70;;;19.23;;
40951;SDS011;26682;51.660;19.338;2023-09-19T06:01:20;26.08;;;20.90;;
40951;SDS011;26682;51.660;19.338;2023-09-19T06:04:04;23.40;;;19.48;;
40951;SDS011;26682;51.660;19.338;2023-09-19T06:06:46;21.92;;;19.50;;
40951;SDS011;26682;51.660;19.338;2023-09-19T06:09:30;22.52;;;20.17;;
40951;SDS011;26682;51.660;19.338;2023-09-19T06:12:14;23.33;;;20.27;;
40951;SDS011;26682;51.660;19.338;2023-09-19T06:14:59;21.60;;;19.23;;
40951;SDS011;26682;51.660;19.338;2023-09-19T06:17:42;24.77;;;19.80;;
40951;SDS011;26682;51.660;19.338;2023-09-19T06:20:25;24.92;;;21.25;;
40951;SDS011;26682;51.660;19.338;2023-09-19T06:23:08;27.75;;;24.15;;
40951;SDS011;26682;51.660;19.338;2023-09-19T06:25:52;28.65;;;25.58;;
40951;SDS011;26682;51.660;19.338;2023-09-19T06:28:38;26.33;;;22.10;;
40951;SDS011;26682;51.660;19.338;2023-09-19T06:31:21;24.48;;;21.05;;
40951;SDS011;26682;51.660;19.338;2023-09-19T06:34:08;22.92;;;20.52;;
40951;SDS011;26682;51.660;19.338;2023-09-19T06:36:51;47.90;;;31.27;;
40951;SDS011;26682;51.660;19.338;2023-09-19T06:39:34;25.63;;;22.50;;
40951;SDS011;26682;51.660;19.338;2023-09-19T06:42:16;29.17;;;22.63;;
40951;SDS011;26682;51.660;19.338;2023-09-19T06:45:03;31.55;;;22.23;;
40951;SDS011;26682;51.660;19.338;2023-09-19T06:47:48;24.00;;;21.45;;
40951;SDS011;26682;51.660;19.338;2023-09-19T06:50:34;22.17;;;19.77;;
40951;SDS011;26682;51.660;19.338;2023-09-19T06:53:17;27.25;;;21.25;;
40951;SDS011;26682;51.660;19.338;2023-09-19T06:56:00;23.92;;;19.40;;
40951;SDS011;26682;51.660;19.338;2023-09-19T06:58:42;20.90;;;18.25;;
40951;SDS011;26682;51.660;19.338;2023-09-19T07:01:25;19.27;;;17.20;;
40951;SDS011;26682;51.660;19.338;2023-09-19T07:04:08;20.70;;;17.55;;
40951;SDS011;26682;51.660;19.338;2023-09-19T07:06:51;24.48;;;18.02;;
40951;SDS011;26682;51.660;19.338;2023-09-19T07:09:34;19.63;;;16.55;;
40951;SDS011;26682;51.660;19.338;2023-09-19T07:12:16;20.90;;;15.95;;
40951;SDS011;26682;51.660;19.338;2023-09-19T07:14:59;20.08;;;15.05;;
40951;SDS011;26682;51.660;19.338;2023-09-19T07:17:42;16.85;;;15.02;;
40951;SDS011;26682;51.660;19.338;2023-09-19T07:20:24;16.88;;;14.35;;
40951;SDS011;26682;51.660;19.338;2023-09-19T07:23:08;16.73;;;14.95;;
40951;SDS011;26682;51.660;19.338;2023-09-19T07:25:51;16.75;;;14.95;;
40951;SDS011;26682;51.660;19.338;2023-09-19T07:28:34;14.15;;;12.60;;
40951;SDS011;26682;51.660;19.338;2023-09-19T07:31:18;15.13;;;11.75;;
40951;SDS011;26682;51.660;19.338;2023-09-19T07:34:01;11.88;;;10.23;;
40951;SDS011;26682;51.660;19.338;2023-09-19T07:39:29;10.13;;;8.07;;
40951;SDS011;26682;51.660;19.338;2023-09-19T07:42:12;9.68;;;8.07;;
40951;SDS011;26682;51.660;19.338;2023-09-19T07:45:01;9.50;;;6.93;;
40951;SDS011;26682;51.660;19.338;2023-09-19T07:47:44;9.70;;;5.53;;
40951;SDS011;26682;51.660;19.338;2023-09-19T07:50:27;7.28;;;6.18;;
40951;SDS011;26682;51.660;19.338;2023-09-19T07:53:10;7.75;;;6.43;;
40951;SDS011;26682;51.660;19.338;2023-09-19T07:56:02;8.40;;;6.93;;
40951;SDS011;26682;51.660;19.338;2023-09-19T07:58:45;13.13;;;7.80;;
40951;SDS011;26682;51.660;19.338;2023-09-19T08:01:28;10.25;;;7.47;;
40951;SDS011;26682;51.660;19.338;2023-09-19T08:04:11;10.48;;;8.10;;
40951;SDS011;26682;51.660;19.338;2023-09-19T08:06:54;14.55;;;10.52;;
40951;SDS011;26682;51.660;19.338;2023-09-19T08:09:38;14.30;;;10.32;;
40951;SDS011;26682;51.660;19.338;2023-09-19T08:12:21;14.15;;;10.63;;
40951;SDS011;26682;51.660;19.338;2023-09-19T08:15:04;22.95;;;11.02;;
40951;SDS011;26682;51.660;19.338;2023-09-19T08:17:48;13.25;;;10.60;;
40951;SDS011;26682;51.660;19.338;2023-09-19T08:20:31;12.00;;;9.23;;
40951;SDS011;26682;51.660;19.338;2023-09-19T08:23:14;9.77;;;7.57;;
40951;SDS011;26682;51.660;19.338;2023-09-19T08:25:59;8.93;;;7.60;;
40951;SDS011;26682;51.660;19.338;2023-09-19T08:28:45;10.95;;;8.40;;
40951;SDS011;26682;51.660;19.338;2023-09-19T08:31:27;12.00;;;9.13;;
40951;SDS011;26682;51.660;19.338;2023-09-19T08:34:11;12.63;;;9.52;;
40951;SDS011;26682;51.660;19.338;2023-09-19T08:36:54;10.77;;;9.60;;
40951;SDS011;26682;51.660;19.338;2023-09-19T08:39:40;13.15;;;11.05;;
40951;SDS011;26682;51.660;19.338;2023-09-19T08:42:22;10.40;;;9.30;;
40951;SDS011;26682;51.660;19.338;2023-09-19T08:45:07;11.85;;;8.90;;
40951;SDS011;26682;51.660;19.338;2023-09-19T08:50:49;8.70;;;7.80;;
40951;SDS011;26682;51.660;19.338;2023-09-19T08:56:54;8.88;;;8.00;;
40951;SDS011;26682;51.660;19.338;2023-09-19T08:59:38;10.25;;;8.25;;
40951;SDS011;26682;51.660;19.338;2023-09-19T09:02:22;10.77;;;8.55;;
40951;SDS011;26682;51.660;19.338;2023-09-19T09:05:09;10.02;;;8.10;;
40951;SDS011;26682;51.660;19.338;2023-09-19T09:10:38;8.20;;;7.32;;
40951;SDS011;26682;51.660;19.338;2023-09-19T09:13:23;8.02;;;7.28;;
40951;SDS011;26682;51.660;19.338;2023-09-19T09:16:08;7.75;;;6.95;;
40951;SDS011;26682;51.660;19.338;2023-09-19T09:18:52;10.52;;;8.35;;
40951;SDS011;26682;51.660;19.338;2023-09-19T09:21:36;10.80;;;8.73;;
40951;SDS011;26682;51.660;19.338;2023-09-19T09:24:30;10.57;;;7.85;;
40951;SDS011;26682;51.660;19.338;2023-09-19T09:27:16;10.43;;;7.72;;
40951;SDS011;26682;51.660;19.338;2023-09-19T09:29:59;10.52;;;8.30;;
40951;SDS011;26682;51.660;19.338;2023-09-19T09:32:42;9.40;;;8.50;;
40951;SDS011;26682;51.660;19.338;2023-09-19T09:38:46;9.15;;;7.85;;
40951;SDS011;26682;51.660;19.338;2023-09-19T09:41:36;9.73;;;8.68;;
40951;SDS011;26682;51.660;19.338;2023-09-19T09:44:21;12.23;;;9.27;;
40951;SDS011;26682;51.660;19.338;2023-09-19T09:47:04;12.40;;;8.60;;
40951;SDS011;26682;51.660;19.338;2023-09-19T09:50:28;10.80;;;8.85;;
40951;SDS011;26682;51.660;19.338;2023-09-19T09:53:24;11.73;;;7.97;;
40951;SDS011;26682;51.660;19.338;2023-09-19T09:56:18;8.07;;;7.25;;
40951;SDS011;26682;51.660;19.338;2023-09-19T09:59:01;9.32;;;7.53;;
40951;SDS011;26682;51.660;19.338;2023-09-19T10:01:48;8.75;;;7.30;;
40951;SDS011;26682;51.660;19.338;2023-09-19T10:04:31;9.65;;;7.82;;
40951;SDS011;26682;51.660;19.338;2023-09-19T10:10:14;11.38;;;9.68;;
40951;SDS011;26682;51.660;19.338;2023-09-19T10:13:03;14.70;;;10.57;;
40951;SDS011;26682;51.660;19.338;2023-09-19T10:15:50;12.48;;;9.63;;
40951;SDS011;26682;51.660;19.338;2023-09-19T10:21:18;16.63;;;9.25;;
40951;SDS011;26682;51.660;19.338;2023-09-19T10:24:04;10.95;;;8.57;;
40951;SDS011;26682;51.660;19.338;2023-09-19T10:26:50;13.18;;;9.05;;
40951;SDS011;26682;51.660;19.338;2023-09-19T10:29:34;12.20;;;9.80;;
40951;SDS011;26682;51.660;19.338;2023-09-19T10:32:21;10.27;;;9.20;;
40951;SDS011;26682;51.660;19.338;2023-09-19T10:35:05;11.63;;;10.43;;
40951;SDS011;26682;51.660;19.338;2023-09-19T10:37:50;13.13;;;10.73;;
40951;SDS011;26682;51.660;19.338;2023-09-19T10:40:36;12.73;;;11.20;;
40951;SDS011;26682;51.660;19.338;2023-09-19T10:43:25;10.95;;;9.48;;
40951;SDS011;26682;51.660;19.338;2023-09-19T10:46:16;11.13;;;9.05;;
40951;SDS011;26682;51.660;19.338;2023-09-19T10:49:00;10.50;;;9.52;;
40951;SDS011;26682;51.660;19.338;2023-09-19T10:51:43;10.68;;;8.15;;
40951;SDS011;26682;51.660;19.338;2023-09-19T10:54:30;10.15;;;8.88;;
40951;SDS011;26682;51.660;19.338;2023-09-19T10:57:19;9.18;;;7.97;;
40951;SDS011;26682;51.660;19.338;2023-09-19T11:00:06;8.93;;;8.07;;
40951;SDS011;26682;51.660;19.338;2023-09-19T11:09:00;14.73;;;10.75;;
40951;SDS011;26682;51.660;19.338;2023-09-19T11:12:07;10.30;;;9.50;;
40951;SDS011;26682;51.660;19.338;2023-09-19T11:14:49;12.70;;;9.70;;
40951;SDS011;26682;51.660;19.338;2023-09-19T11:17:35;8.73;;;7.88;;
40951;SDS011;26682;51.660;19.338;2023-09-19T11:20:24;9.90;;;8.10;;
40951;SDS011;26682;51.660;19.338;2023-09-19T11:23:17;10.00;;;9.00;;
40951;SDS011;26682;51.660;19.338;2023-09-19T11:26:01;10.57;;;8.93;;
40951;SDS011;26682;51.660;19.338;2023-09-19T11:28:44;9.63;;;8.38;;
40951;SDS011;26682;51.660;19.338;2023-09-19T11:31:42;6.65;;;6.05;;
40951;SDS011;26682;51.660;19.338;2023-09-19T11:40:07;13.20;;;8.35;;
40951;SDS011;26682;51.660;19.338;2023-09-19T11:42:58;8.25;;;6.57;;
40951;SDS011;26682;51.660;19.338;2023-09-19T11:48:39;7.65;;;6.68;;
40951;SDS011;26682;51.660;19.338;2023-09-19T11:51:24;7.43;;;6.32;;
40951;SDS011;26682;51.660;19.338;2023-09-19T11:54:13;7.15;;;6.22;;
40951;SDS011;26682;51.660;19.338;2023-09-19T11:57:10;7.35;;;6.60;;
40951;SDS011;26682;51.660;19.338;2023-09-19T12:00:01;7.93;;;6.25;;
40951;SDS011;26682;51.660;19.338;2023-09-19T12:02:54;6.20;;;5.60;;
40951;SDS011;26682;51.660;19.338;2023-09-19T12:05:43;9.68;;;5.70;;
40951;SDS011;26682;51.660;19.338;2023-09-19T12:08:25;6.25;;;5.60;;
40951;SDS011;26682;51.660;19.338;2023-09-19T12:11:15;6.90;;;4.60;;
40951;SDS011;26682;51.660;19.338;2023-09-19T12:13:59;8.13;;;4.75;;
40951;SDS011;26682;51.660;19.338;2023-09-19T12:16:50;5.82;;;4.47;;
40951;SDS011;26682;51.660;19.338;2023-09-19T12:19:37;7.80;;;4.43;;
40951;SDS011;26682;51.660;19.338;2023-09-19T12:22:20;5.43;;;4.45;;
40951;SDS011;26682;51.660;19.338;2023-09-19T12:25:06;6.90;;;4.20;;
40951;SDS011;26682;51.660;19.338;2023-09-19T12:27:49;8.20;;;4.38;;
40951;SDS011;26682;51.660;19.338;2023-09-19T12:30:35;7.60;;;5.50;;
40951;SDS011;26682;51.660;19.338;2023-09-19T12:33:18;7.05;;;4.93;;
40951;SDS011;26682;51.660;19.338;2023-09-19T12:36:19;6.40;;;3.90;;
40951;SDS011;26682;51.660;19.338;2023-09-19T12:39:07;7.18;;;4.13;;
40951;SDS011;26682;51.660;19.338;2023-09-19T12:41:51;7.35;;;3.75;;
40951;SDS011;26682;51.660;19.338;2023-09-19T12:44:36;8.85;;;3.63;;
40951;SDS011;26682;51.660;19.338;2023-09-19T12:47:20;6.60;;;2.95;;
40951;SDS011;26682;51.660;19.338;2023-09-19T12:50:09;9.67;;;2.30;;
40951;SDS011;26682;51.660;19.338;2023-09-19T12:53:07;4.55;;;2.42;;
40951;SDS011;26682;51.660;19.338;2023-09-19T12:56:08;7.50;;;2.38;;
40951;SDS011;26682;51.660;19.338;2023-09-19T12:58:57;6.00;;;2.83;;
40951;SDS011;26682;51.660;19.338;2023-09-19T13:01:45;4.97;;;2.30;;
40951;SDS011;26682;51.660;19.338;2023-09-19T13:04:32;5.75;;;2.40;;
40951;SDS011;26682;51.660;19.338;2023-09-19T13:08:04;4.70;;;2.35;;
40951;SDS011;26682;51.660;19.338;2023-09-19T13:10:26;8.55;;;2.25;;
40951;SDS011;26682;51.660;19.338;2023-09-19T13:13:23;6.30;;;2.03;;
40951;SDS011;26682;51.660;19.338;2023-09-19T13:16:11;3.88;;;2.22;;
40951;SDS011;26682;51.660;19.338;2023-09-19T13:18:57;4.10;;;2.20;;
40951;SDS011;26682;51.660;19.338;2023-09-19T13:21:39;3.53;;;2.10;;
40951;SDS011;26682;51.660;19.338;2023-09-19T13:24:27;6.53;;;2.25;;
40951;SDS011;26682;51.660;19.338;2023-09-19T13:27:10;4.15;;;2.20;;
40951;SDS011;26682;51.660;19.338;2023-09-19T13:29:52;3.67;;;2.17;;
40951;SDS011;26682;51.660;19.338;2023-09-19T13:32:35;4.82;;;2.33;;
40951;SDS011;26682;51.660;19.338;2023-09-19T13:35:17;3.38;;;2.13;;
40951;SDS011;26682;51.660;19.338;2023-09-19T13:38:00;5.80;;;2.42;;
40951;SDS011;26682;51.660;19.338;2023-09-19T13:40:44;2.90;;;1.90;;
40951;SDS011;26682;51.660;19.338;2023-09-19T13:43:27;3.20;;;2.13;;
40951;SDS011;26682;51.660;19.338;2023-09-19T13:46:10;2.53;;;2.00;;
40951;SDS011;26682;51.660;19.338;2023-09-19T13:48:58;2.67;;;2.05;;
40951;SDS011;26682;51.660;19.338;2023-09-19T13:51:44;2.17;;;1.98;;
40951;SDS011;26682;51.660;19.338;2023-09-19T13:54:27;4.55;;;2.05;;
40951;SDS011;26682;51.660;19.338;2023-09-19T13:57:10;9.98;;;2.20;;
40951;SDS011;26682;51.660;19.338;2023-09-19T13:59:53;2.92;;;1.63;;
40951;SDS011;26682;51.660;19.338;2023-09-19T14:02:36;5.53;;;1.73;;
40951;SDS011;26682;51.660;19.338;2023-09-19T14:05:19;3.58;;;1.80;;
40951;SDS011;26682;51.660;19.338;2023-09-19T14:08:03;2.42;;;1.08;;
40951;SDS011;26682;51.660;19.338;2023-09-19T14:10:46;3.05;;;1.23;;
40951;SDS011;26682;51.660;19.338;2023-09-19T14:13:28;1.45;;;1.15;;
40951;SDS011;26682;51.660;19.338;2023-09-19T14:16:11;4.85;;;1.20;;
40951;SDS011;26682;51.660;19.338;2023-09-19T14:18:53;4.88;;;1.52;;
40951;SDS011;26682;51.660;19.338;2023-09-19T14:21:36;3.67;;;1.63;;
40951;SDS011;26682;51.660;19.338;2023-09-19T14:24:21;3.17;;;1.40;;
40951;SDS011;26682;51.660;19.338;2023-09-19T14:27:04;4.65;;;1.10;;
40951;SDS011;26682;51.660;19.338;2023-09-19T14:29:48;4.68;;;1.20;;
40951;SDS011;26682;51.660;19.338;2023-09-19T14:32:31;3.08;;;1.20;;
40951;SDS011;26682;51.660;19.338;2023-09-19T14:35:13;3.22;;;1.30;;
40951;SDS011;26682;51.660;19.338;2023-09-19T14:37:57;6.05;;;1.45;;
40951;SDS011;26682;51.660;19.338;2023-09-19T14:40:39;2.13;;;1.10;;
40951;SDS011;26682;51.660;19.338;2023-09-19T14:43:22;4.45;;;1.40;;
40951;SDS011;26682;51.660;19.338;2023-09-19T14:46:05;2.60;;;1.30;;
40951;SDS011;26682;51.660;19.338;2023-09-19T14:48:56;2.65;;;1.38;;
40951;SDS011;26682;51.660;19.338;2023-09-19T14:51:41;3.55;;;1.60;;
40951;SDS011;26682;51.660;19.338;2023-09-19T14:54:26;2.63;;;2.30;;
40951;SDS011;26682;51.660;19.338;2023-09-19T14:57:11;2.17;;;1.80;;
40951;SDS011;26682;51.660;19.338;2023-09-19T14:59:56;4.22;;;2.10;;
40951;SDS011;26682;51.660;19.338;2023-09-19T15:02:39;3.13;;;1.70;;
40951;SDS011;26682;51.660;19.338;2023-09-19T15:05:23;6.05;;;1.55;;
40951;SDS011;26682;51.660;19.338;2023-09-19T15:08:06;4.15;;;1.80;;
40951;SDS011;26682;51.660;19.338;2023-09-19T15:10:49;1.73;;;1.20;;
40951;SDS011;26682;51.660;19.338;2023-09-19T15:13:35;1.40;;;1.02;;
40951;SDS011;26682;51.660;19.338;2023-09-19T15:16:18;2.50;;;1.40;;
40951;SDS011;26682;51.660;19.338;2023-09-19T15:19:01;4.30;;;1.15;;
40951;SDS011;26682;51.660;19.338;2023-09-19T15:21:44;4.55;;;1.42;;
40951;SDS011;26682;51.660;19.338;2023-09-19T15:24:27;3.60;;;1.15;;
40951;SDS011;26682;51.660;19.338;2023-09-19T15:27:10;2.95;;;1.23;;
40951;SDS011;26682;51.660;19.338;2023-09-19T15:29:53;3.33;;;1.55;;
40951;SDS011;26682;51.660;19.338;2023-09-19T15:32:35;2.47;;;1.30;;
40951;SDS011;26682;51.660;19.338;2023-09-19T15:35:18;3.38;;;1.45;;
40951;SDS011;26682;51.660;19.338;2023-09-19T15:38:01;4.63;;;1.85;;
40951;SDS011;26682;51.660;19.338;2023-09-19T15:40:47;2.67;;;1.30;;
40951;SDS011;26682;51.660;19.338;2023-09-19T15:43:30;2.08;;;1.10;;
40951;SDS011;26682;51.660;19.338;2023-09-19T15:46:15;3.45;;;1.30;;
40951;SDS011;26682;51.660;19.338;2023-09-19T15:48:58;2.78;;;1.75;;
40951;SDS011;26682;51.660;19.338;2023-09-19T15:51:42;3.47;;;2.38;;
40951;SDS011;26682;51.660;19.338;2023-09-19T15:54:25;6.50;;;3.33;;
40951;SDS011;26682;51.660;19.338;2023-09-19T15:57:09;7.53;;;3.97;;
40951;SDS011;26682;51.660;19.338;2023-09-19T15:59:54;8.32;;;3.95;;
40951;SDS011;26682;51.660;19.338;2023-09-19T16:02:39;3.35;;;2.55;;
40951;SDS011;26682;51.660;19.338;2023-09-19T16:05:22;7.93;;;2.70;;
40951;SDS011;26682;51.660;19.338;2023-09-19T16:08:06;3.80;;;2.70;;
40951;SDS011;26682;51.660;19.338;2023-09-19T16:10:49;7.00;;;2.55;;
40951;SDS011;26682;51.660;19.338;2023-09-19T16:13:33;7.82;;;2.90;;
40951;SDS011;26682;51.660;19.338;2023-09-19T16:16:17;5.32;;;2.30;;
40951;SDS011;26682;51.660;19.338;2023-09-19T16:19:02;3.60;;;1.65;;
40951;SDS011;26682;51.660;19.338;2023-09-19T16:24:30;4.13;;;1.80;;
40951;SDS011;26682;51.660;19.338;2023-09-19T16:27:13;3.40;;;1.73;;
40951;SDS011;26682;51.660;19.338;2023-09-19T16:29:57;5.22;;;1.98;;
40951;SDS011;26682;51.660;19.338;2023-09-19T16:32:40;6.80;;;2.45;;
40951;SDS011;26682;51.660;19.338;2023-09-19T16:35:22;4.60;;;2.20;;
40951;SDS011;26682;51.660;19.338;2023-09-19T16:38:05;6.15;;;2.47;;
40951;SDS011;26682;51.660;19.338;2023-09-19T16:40:51;3.95;;;1.95;;
40951;SDS011;26682;51.660;19.338;2023-09-19T16:43:37;4.63;;;2.70;;
40951;SDS011;26682;51.660;19.338;2023-09-19T16:46:20;3.80;;;2.10;;
40951;SDS011;26682;51.660;19.338;2023-09-19T16:49:03;5.43;;;2.30;;
40951;SDS011;26682;51.660;19.338;2023-09-19T16:51:46;4.97;;;2.45;;
40951;SDS011;26682;51.660;19.338;2023-09-19T16:54:29;9.57;;;2.90;;